Albert, KS

12:33 PM CDT on July 28, 2014 (GMT -0500)
Great Bend Municipal (KGBD) Elev 1886 ft | 38.34 °N, 98.86 °W | Change Station

Current weather conditions updated 18 minutes ago

Clear
Clear
77 °F
Feels Like 77 °F
N
6
Wind Variable Wind from SSE

Today is forecast to be Cooler than yesterday.

Today
High -- | Low -- °F
--% Chance of Precip.
Yesterday
High -- | Low -- °F
Precip. -- in
6:34 AM 8:49 PM
Waxing Crescent, 3% visible
Pressure 30.30 in
Visibility 10.0 miles
Clouds Clear
Dew Point 59 °F
Humidity 54%
Rainfall 0.00 in
Snow Depth Not available.
UV 10 out of 12
Pollen 6.30 out of 12
Air Quality Not available.
Flu Activity Not available.
METAR KGBD 281715Z AUTO 15005KT 10SM CLR 25/15 A3030 RMK AO1

More Conditions Fewer Conditions

Pressure 30.30 in
Visibility 10.0 miles
Clouds Clear
Dew Point 59 °F
Humidity 54%
Rainfall 0.00 in
Snow Depth Not available.
UV 10 out of 12
Pollen 6.30 out of 12
Air Quality Not available.
Flu Activity Not available.
METAR KGBD 281715Z AUTO 15005KT 10SM CLR 25/15 A3030 RMK AO1

More Conditions Fewer Conditions

10-Day Weather Forecast

Almanac

Astronomy

Jul. 28, 2014 Rise Set
Actual Time 6:34 AM CDT 8:49 PM CDT
Civil Twilight 6:04 AM CDT 9:19 PM CDT
Nautical Twilight 5:28 AM CDT 9:56 PM CDT
Astronomical Twilight 4:48 AM CDT 10:36 PM CDT
Moon 8:15 AM CDT 9:34 PM CDT
Length of Visible Light 15h 14m
Length of Day
14h 15m
Tomorrow will be 1m 46s shorter.
Waxing Crescent, 3% of the Moon is Illuminated
Today
Waxing Crescent
Aug 3
First Quarter
Aug 10
Full
Aug 17
Last Quarter
Aug 25
New

Today's Extremes

State Highs State Lows

Community

WunderPhotos

Upload Photos

1,738,421 photos uploaded!

WunderBlogs® & News

By Dr. Jeff Masters
Director of Meteorology, Weather Underground
By Kari Strenfel
Meteorologist, Weather Underground
By Christopher C. Burt
Weather Historian, Weather Underground
July 28, 2014
July 28, 2014
July 28, 2014

Nearby

Snow Depth

Station Depth Elevation
No new snow has been reported.

Earthquake Activity

City Distance Mag. Time & Date
Helena, Oklahoma 131 miles 2.6 12:50 PM CDT
2014-07-22
Minimum magnitude displayed is 2.5.

Coastal Water Temperatures

Place Temperature
No Stations Reporting

Nearby Weather Stations

Station Location Temp. Heat Index Dew Point Humidity Wind Precip. Elev Updated Type
Eisenhower School Area, Great Bend, KS 82.2 °F 83 °F 62 °F 51% South  at  1.0 mph 0.00 in / hr 1860 ft 12:32 PM CDT Normal
HADS ARKANSAS RIVER AT GREAT BEND KS, Great Bend, KS 91 °F 87 °F - - North  at  - 0.00 in / hr 1850 ft 11:30 AM CDT MADIS
Ellinwood High School, Ellinwood, KS 80.2 °F 81 °F 60 °F 50% WSW  at  4.0 mph 0.00 in / hr 1811 ft 12:33 PM CDT Rapid Fire

Show More Stations Show Fewer Stations